Time;durP1;ratioP1;P1;durP2;ratioP2;P2;SDS_P1;SDS_P2;PMS_P1;PMS_P2;Temp;Humidity;BMP_temperature;BMP_pressure;BME280_temperature;BME280_humidity;BME280_pressure;Samples;Min_cycle;Max_cycle;Signal;HPM_P1;HPM_P2
2021/08/31 00:02:11;;;;;;;19.07;14.90;;;;;;;;;;4992806;28;20469;-44
2021/08/31 00:04:37;;;;;;;19.20;14.40;;;;;;;;;;4993022;28;20527;-45
2021/08/31 00:07:03;;;;;;;17.30;14.80;;;;;;;;;;4975537;28;20436;-46
2021/08/31 00:09:28;;;;;;;19.73;16.97;;;;;;;;;;4992957;28;20414;-46
2021/08/31 00:11:54;;;;;;;19.67;16.30;;;;;;;;;;4992542;28;20407;-44
2021/08/31 00:14:21;;;;;;;22.23;16.57;;;;;;;;;;5006977;28;20496;-44
2021/08/31 00:16:47;;;;;;;22.13;17.10;;;;;;;;;;5012401;28;20875;-44
2021/08/31 00:19:13;;;;;;;26.97;16.47;;;;;;;;;;5012481;28;20805;-45
2021/08/31 00:21:40;;;;;;;18.37;15.30;;;;;;;;;;5012158;28;20453;-44
2021/08/31 00:24:06;;;;;;;28.07;17.90;;;;;;;;;;5012385;28;20847;-45
2021/08/31 00:26:33;;;;;;;26.27;16.70;;;;;;;;;;5011477;28;20441;-45
2021/08/31 00:28:59;;;;;;;29.20;17.30;;;;;;;;;;5012310;28;20410;-45
2021/08/31 00:31:24;;;;;;;24.47;16.40;;;;;;;;;;5011975;28;20404;-45
2021/08/31 00:33:50;;;;;;;20.90;16.00;;;;;;;;;;5012178;28;20495;-45
2021/08/31 00:36:16;;;;;;;22.30;15.80;;;;;;;;;;5012206;28;20485;-45
2021/08/31 00:38:42;;;;;;;23.77;19.27;;;;;;;;;;5012144;28;20453;-44
2021/08/31 00:41:08;;;;;;;24.87;17.37;;;;;;;;;;5011864;28;20944;-44
2021/08/31 00:43:42;;;;;;;23.73;18.90;;;;;;;;;;5011208;28;20923;-45
2021/08/31 00:46:08;;;;;;;23.63;18.80;;;;;;;;;;5011391;28;20484;-44
2021/08/31 00:48:34;;;;;;;21.90;17.50;;;;;;;;;;5011991;28;20818;-44
2021/08/31 00:51:00;;;;;;;25.30;18.67;;;;;;;;;;5005942;28;20470;-45
2021/08/31 00:53:26;;;;;;;27.53;20.57;;;;;;;;;;4992374;28;20543;-45
2021/08/31 00:55:52;;;;;;;27.47;19.77;;;;;;;;;;4992386;28;20407;-47
2021/08/31 00:58:18;;;;;;;24.63;18.70;;;;;;;;;;4992350;28;20473;-47
2021/08/31 01:00:44;;;;;;;24.10;18.90;;;;;;;;;;4998154;28;20413;-44
2021/08/31 01:03:09;;;;;;;25.90;19.13;;;;;;;;;;5012037;28;20399;-44
2021/08/31 01:05:36;;;;;;;31.23;19.47;;;;;;;;;;5012248;28;20875;-44
2021/08/31 01:08:02;;;;;;;25.00;19.67;;;;;;;;;;5011819;28;20425;-45
2021/08/31 01:10:28;;;;;;;21.67;17.10;;;;;;;;;;5011797;28;20445;-44
2021/08/31 01:12:55;;;;;;;29.73;20.33;;;;;;;;;;5011622;28;20480;-44
2021/08/31 01:15:21;;;;;;;31.00;20.27;;;;;;;;;;5011025;28;20433;-44
2021/08/31 01:17:47;;;;;;;25.80;20.20;;;;;;;;;;5011764;28;20425;-44
2021/08/31 01:20:13;;;;;;;24.33;18.90;;;;;;;;;;5011876;28;20869;-45
2021/08/31 01:22:39;;;;;;;29.93;21.60;;;;;;;;;;5011456;28;20891;-44
2021/08/31 01:25:06;;;;;;;29.83;20.30;;;;;;;;;;5011692;28;20767;-45
2021/08/31 01:27:32;;;;;;;28.47;19.40;;;;;;;;;;5011713;28;20426;-45
2021/08/31 01:29:59;;;;;;;24.67;19.80;;;;;;;;;;5010942;28;20437;-46
2021/08/31 01:32:26;;;;;;;29.30;20.40;;;;;;;;;;5011329;28;20464;-44
2021/08/31 01:34:52;;;;;;;26.83;20.17;;;;;;;;;;5011696;28;20403;-47
2021/08/31 01:37:18;;;;;;;25.20;21.07;;;;;;;;;;5011524;28;20468;-45
2021/08/31 01:39:44;;;;;;;24.03;19.27;;;;;;;;;;5014710;28;20399;-46
2021/08/31 01:42:10;;;;;;;29.23;20.20;;;;;;;;;;5015035;28;20953;-44
2021/08/31 01:44:36;;;;;;;27.30;20.10;;;;;;;;;;5014292;28;20503;-44
2021/08/31 01:47:03;;;;;;;24.73;20.53;;;;;;;;;;5014368;28;20438;-44
2021/08/31 01:49:28;;;;;;;32.30;21.73;;;;;;;;;;5015129;28;20385;-45
2021/08/31 01:51:54;;;;;;;24.27;19.40;;;;;;;;;;5014702;28;20420;-45
2021/08/31 01:54:20;;;;;;;28.70;19.77;;;;;;;;;;5014998;28;20395;-45
2021/08/31 01:56:47;;;;;;;25.87;19.90;;;;;;;;;;5014943;28;20381;-44
2021/08/31 01:59:13;;;;;;;31.37;21.40;;;;;;;;;;5014887;28;20795;-45
2021/08/31 02:01:40;;;;;;;27.40;20.27;;;;;;;;;;5014642;28;20406;-44
2021/08/31 02:04:06;;;;;;;33.13;20.33;;;;;;;;;;5014976;28;20884;-45
2021/08/31 02:06:32;;;;;;;29.10;21.07;;;;;;;;;;5014728;28;20559;-44
2021/08/31 02:08:58;;;;;;;30.40;23.10;;;;;;;;;;5014738;28;20406;-44
2021/08/31 02:11:24;;;;;;;28.33;20.57;;;;;;;;;;5014484;28;20410;-44
2021/08/31 02:13:50;;;;;;;28.33;19.87;;;;;;;;;;5014637;28;20477;-45
2021/08/31 02:16:16;;;;;;;26.53;20.20;;;;;;;;;;5012889;28;20430;-45
2021/08/31 02:18:42;;;;;;;26.17;20.40;;;;;;;;;;5014510;28;20481;-44
2021/08/31 02:21:09;;;;;;;35.93;22.23;;;;;;;;;;5014220;28;20403;-45
2021/08/31 02:23:36;;;;;;;25.63;20.27;;;;;;;;;;5014441;28;20406;-44
2021/08/31 02:26:02;;;;;;;27.00;20.27;;;;;;;;;;5014705;28;20838;-44
2021/08/31 02:28:28;;;;;;;29.10;21.37;;;;;;;;;;5014362;28;20462;-44
2021/08/31 02:30:54;;;;;;;31.70;21.17;;;;;;;;;;5014048;28;20448;-44
2021/08/31 02:33:20;;;;;;;28.50;21.10;;;;;;;;;;5014211;28;20492;-46
2021/08/31 02:35:46;;;;;;;31.27;20.50;;;;;;;;;;5014184;28;20411;-46
2021/08/31 02:38:12;;;;;;;26.20;20.37;;;;;;;;;;5014116;28;20426;-44
2021/08/31 02:40:38;;;;;;;30.87;21.90;;;;;;;;;;5014200;28;20403;-44
2021/08/31 02:43:05;;;;;;;25.77;20.40;;;;;;;;;;5013883;28;20405;-44
2021/08/31 02:45:31;;;;;;;34.93;21.60;;;;;;;;;;5013153;28;20427;-44
2021/08/31 02:47:56;;;;;;;26.27;18.90;;;;;;;;;;5013907;28;20914;-46
2021/08/31 02:50:23;;;;;;;27.03;20.70;;;;;;;;;;5013371;28;20417;-44
2021/08/31 02:52:49;;;;;;;26.50;20.10;;;;;;;;;;5013607;28;20510;-44
2021/08/31 02:55:15;;;;;;;25.53;19.37;;;;;;;;;;5013971;28;20424;-44
2021/08/31 02:57:41;;;;;;;31.33;20.37;;;;;;;;;;5013742;28;20956;-44
2021/08/31 03:00:07;;;;;;;25.23;17.90;;;;;;;;;;5013891;28;20418;-44
2021/08/31 03:02:33;;;;;;;26.90;18.37;;;;;;;;;;5013511;28;20413;-44
2021/08/31 03:04:59;;;;;;;22.70;18.20;;;;;;;;;;5013718;28;20386;-44
2021/08/31 03:07:25;;;;;;;22.57;17.10;;;;;;;;;;5013628;28;20510;-44
2021/08/31 03:09:51;;;;;;;26.53;19.00;;;;;;;;;;5012719;28;20415;-49
2021/08/31 03:12:17;;;;;;;24.20;18.10;;;;;;;;;;5005265;28;20973;-44
2021/08/31 03:14:43;;;;;;;25.53;17.70;;;;;;;;;;4995249;28;20896;-44
2021/08/31 03:17:10;;;;;;;34.40;20.00;;;;;;;;;;4993837;28;20428;-44
2021/08/31 03:19:36;;;;;;;24.67;17.57;;;;;;;;;;5003891;28;20415;-45
2021/08/31 03:22:03;;;;;;;23.20;17.60;;;;;;;;;;5013083;28;20916;-45
2021/08/31 03:24:29;;;;;;;26.83;20.50;;;;;;;;;;5013385;28;20399;-44
2021/08/31 03:26:56;;;;;;;22.63;19.07;;;;;;;;;;5012884;28;20487;-44
2021/08/31 03:29:22;;;;;;;27.83;19.70;;;;;;;;;;4993692;28;20928;-46
2021/08/31 03:31:48;;;;;;;33.93;20.80;;;;;;;;;;4993372;28;20382;-45
2021/08/31 03:34:14;;;;;;;29.30;21.17;;;;;;;;;;4993570;28;20442;-44
2021/08/31 03:36:40;;;;;;;32.70;22.70;;;;;;;;;;4993560;28;20417;-44
2021/08/31 03:39:06;;;;;;;29.40;21.27;;;;;;;;;;4993424;28;20415;-44
2021/08/31 03:41:32;;;;;;;34.47;21.73;;;;;;;;;;4993178;28;20395;-46
2021/08/31 03:43:58;;;;;;;30.33;22.03;;;;;;;;;;4993437;28;20403;-44
2021/08/31 03:46:24;;;;;;;29.20;22.70;;;;;;;;;;5011806;28;20459;-44
2021/08/31 03:48:50;;;;;;;34.20;24.77;;;;;;;;;;5012834;28;20512;-45
2021/08/31 03:51:16;;;;;;;37.20;24.83;;;;;;;;;;5012602;28;20745;-44
2021/08/31 03:53:42;;;;;;;31.20;23.27;;;;;;;;;;5012768;28;20426;-44
2021/08/31 03:56:08;;;;;;;33.23;22.10;;;;;;;;;;5012761;28;20411;-45
2021/08/31 03:58:34;;;;;;;28.07;20.57;;;;;;;;;;5012627;28;20412;-44
2021/08/31 04:01:00;;;;;;;32.80;23.27;;;;;;;;;;5012334;28;20808;-45
2021/08/31 04:03:26;;;;;;;33.27;22.43;;;;;;;;;;5012721;28;20485;-46
2021/08/31 04:05:52;;;;;;;34.53;22.93;;;;;;;;;;5012673;28;20950;-44
2021/08/31 04:08:18;;;;;;;27.87;21.50;;;;;;;;;;5012490;28;20820;-44
2021/08/31 04:10:44;;;;;;;28.63;21.40;;;;;;;;;;5012442;28;20880;-45
2021/08/31 04:13:12;;;;;;;26.50;22.17;;;;;;;;;;5012328;28;20799;-44
2021/08/31 04:15:38;;;;;;;28.50;21.73;;;;;;;;;;5011493;28;20425;-44
2021/08/31 04:18:05;;;;;;;28.67;20.30;;;;;;;;;;5012385;28;20484;-45
2021/08/31 04:20:31;;;;;;;31.20;20.63;;;;;;;;;;4992847;28;20404;-44
2021/08/31 04:22:56;;;;;;;32.37;21.97;;;;;;;;;;4992523;28;20403;-45
2021/08/31 04:25:23;;;;;;;28.97;21.37;;;;;;;;;;4992763;28;20822;-45
2021/08/31 04:27:49;;;;;;;32.47;23.33;;;;;;;;;;4992584;28;20471;-44
2021/08/31 04:30:15;;;;;;;30.53;22.30;;;;;;;;;;4992290;28;20404;-46
2021/08/31 04:32:41;;;;;;;32.27;22.07;;;;;;;;;;5011955;28;20457;-44
2021/08/31 04:35:07;;;;;;;29.13;21.23;;;;;;;;;;5012235;28;21012;-44
2021/08/31 04:37:33;;;;;;;30.27;20.87;;;;;;;;;;5012074;28;20426;-45
2021/08/31 04:40:00;;;;;;;29.70;23.33;;;;;;;;;;5012171;28;20486;-45
2021/08/31 04:42:26;;;;;;;30.70;22.27;;;;;;;;;;5011909;28;20421;-44
2021/08/31 04:44:52;;;;;;;33.80;21.57;;;;;;;;;;5012091;28;20407;-44
2021/08/31 04:47:19;;;;;;;31.63;22.53;;;;;;;;;;5012103;28;20542;-44
2021/08/31 04:49:45;;;;;;;28.83;21.23;;;;;;;;;;5012099;28;20409;-45
2021/08/31 04:52:11;;;;;;;33.50;23.13;;;;;;;;;;5011718;28;20387;-46
2021/08/31 04:54:37;;;;;;;33.27;23.77;;;;;;;;;;5012082;28;20446;-44
2021/08/31 04:57:03;;;;;;;35.50;24.07;;;;;;;;;;5011889;28;20477;-44
2021/08/31 04:59:29;;;;;;;32.03;22.57;;;;;;;;;;5012002;28;20457;-44
2021/08/31 05:01:55;;;;;;;35.90;23.10;;;;;;;;;;5010684;28;20424;-44
2021/08/31 05:04:27;;;;;;;34.67;24.00;;;;;;;;;;4994347;28;20907;-45
2021/08/31 05:06:53;;;;;;;32.40;22.97;;;;;;;;;;5011866;28;20488;-44
2021/08/31 05:09:19;;;;;;;37.00;23.97;;;;;;;;;;5012419;28;20891;-44
2021/08/31 05:11:45;;;;;;;33.80;24.73;;;;;;;;;;5011600;28;20413;-45
2021/08/31 05:14:11;;;;;;;30.43;22.60;;;;;;;;;;5014248;28;20458;-47
2021/08/31 05:16:37;;;;;;;43.50;26.03;;;;;;;;;;5015676;28;20403;-47
2021/08/31 05:19:03;;;;;;;33.07;23.90;;;;;;;;;;5007755;28;20435;-47
2021/08/31 05:21:29;;;;;;;38.43;24.80;;;;;;;;;;4995702;28;20406;-44
2021/08/31 05:23:56;;;;;;;29.20;22.67;;;;;;;;;;4996059;28;20378;-44
2021/08/31 05:26:22;;;;;;;36.43;25.00;;;;;;;;;;4995825;28;20471;-44
2021/08/31 05:28:48;;;;;;;30.37;24.57;;;;;;;;;;4995748;28;20461;-44
2021/08/31 05:31:14;;;;;;;32.93;23.37;;;;;;;;;;4996171;28;20392;-45
2021/08/31 05:33:40;;;;;;;29.23;22.10;;;;;;;;;;5015211;28;20512;-46
2021/08/31 05:36:06;;;;;;;36.13;23.83;;;;;;;;;;5013814;28;20406;-47
2021/08/31 05:38:32;;;;;;;36.20;22.27;;;;;;;;;;5014834;28;20425;-44
2021/08/31 05:40:58;;;;;;;39.03;24.20;;;;;;;;;;5013759;28;20404;-45
2021/08/31 05:43:24;;;;;;;32.53;22.73;;;;;;;;;;5015349;28;20402;-43
2021/08/31 05:45:50;;;;;;;29.27;21.63;;;;;;;;;;5015270;28;20895;-44
2021/08/31 05:48:16;;;;;;;36.00;22.93;;;;;;;;;;5015136;28;20422;-44
2021/08/31 05:50:42;;;;;;;32.40;22.97;;;;;;;;;;5014972;28;20842;-44
2021/08/31 05:53:08;;;;;;;33.27;22.87;;;;;;;;;;5014861;28;20429;-44
2021/08/31 05:55:34;;;;;;;35.53;24.07;;;;;;;;;;5014931;28;20404;-44
2021/08/31 05:58:00;;;;;;;34.97;24.83;;;;;;;;;;5014838;28;20935;-45
2021/08/31 06:00:26;;;;;;;32.40;23.70;;;;;;;;;;5014942;28;20380;-46
2021/08/31 06:02:54;;;;;;;35.40;24.17;;;;;;;;;;5013573;28;20422;-47
2021/08/31 06:05:20;;;;;;;37.30;23.73;;;;;;;;;;5014887;28;20410;-45
2021/08/31 06:07:46;;;;;;;38.30;25.37;;;;;;;;;;5014810;28;20965;-47
2021/08/31 06:10:14;;;;;;;43.07;28.90;;;;;;;;;;5014734;28;20491;-44
2021/08/31 06:12:40;;;;;;;47.17;30.40;;;;;;;;;;5014433;28;20454;-44
2021/08/31 06:15:07;;;;;;;54.07;32.73;;;;;;;;;;5015860;28;20389;-44
2021/08/31 06:17:33;;;;;;;54.90;30.47;;;;;;;;;;5014605;28;20466;-44
2021/08/31 06:19:59;;;;;;;52.77;31.00;;;;;;;;;;5014550;28;20377;-46
2021/08/31 06:22:25;;;;;;;51.67;31.10;;;;;;;;;;5013405;28;20403;-45
2021/08/31 06:24:51;;;;;;;51.37;30.60;;;;;;;;;;5011650;28;20535;-44
2021/08/31 06:27:17;;;;;;;52.90;30.33;;;;;;;;;;5013234;28;20434;-44
2021/08/31 06:29:43;;;;;;;51.67;31.73;;;;;;;;;;5013842;28;20817;-44
2021/08/31 06:32:09;;;;;;;51.60;30.70;;;;;;;;;;5013450;28;20775;-44
2021/08/31 06:34:35;;;;;;;49.40;30.80;;;;;;;;;;5012717;28;20807;-45
2021/08/31 06:37:01;;;;;;;46.23;29.00;;;;;;;;;;5014061;28;20581;-45
2021/08/31 06:39:27;;;;;;;46.80;28.30;;;;;;;;;;5014179;28;20435;-44
2021/08/31 06:41:53;;;;;;;48.67;28.50;;;;;;;;;;5013896;28;20863;-45
2021/08/31 06:44:19;;;;;;;51.70;28.10;;;;;;;;;;5014132;28;20434;-45
2021/08/31 06:46:45;;;;;;;50.53;30.23;;;;;;;;;;5013998;28;20864;-46
2021/08/31 06:49:12;;;;;;;49.40;28.00;;;;;;;;;;5014026;28;20485;-46
2021/08/31 06:51:38;;;;;;;44.90;26.50;;;;;;;;;;5013769;28;20399;-44
2021/08/31 06:54:04;;;;;;;47.70;26.60;;;;;;;;;;5013808;28;20443;-44
2021/08/31 06:56:30;;;;;;;47.97;25.83;;;;;;;;;;5014006;28;20403;-45
2021/08/31 06:58:56;;;;;;;51.23;28.50;;;;;;;;;;5013663;28;20953;-45
2021/08/31 07:01:22;;;;;;;48.87;26.60;;;;;;;;;;5013521;28;20399;-46
2021/08/31 07:03:48;;;;;;;53.07;28.40;;;;;;;;;;5012862;28;20431;-46
2021/08/31 07:06:14;;;;;;;53.60;27.97;;;;;;;;;;5013769;28;20741;-47
2021/08/31 07:08:40;;;;;;;55.07;29.57;;;;;;;;;;5013585;28;20426;-44
2021/08/31 07:11:06;;;;;;;56.90;28.33;;;;;;;;;;5013389;28;20370;-44
2021/08/31 07:13:32;;;;;;;48.67;26.97;;;;;;;;;;5013566;28;20454;-44
2021/08/31 07:15:58;;;;;;;53.53;28.77;;;;;;;;;;5013625;28;20397;-44
2021/08/31 07:18:24;;;;;;;60.17;29.70;;;;;;;;;;5013425;28;20422;-44
2021/08/31 07:20:50;;;;;;;51.07;27.17;;;;;;;;;;5013252;28;20836;-44
2021/08/31 07:23:16;;;;;;;55.57;27.73;;;;;;;;;;5013414;28;20721;-44
2021/08/31 07:25:43;;;;;;;53.43;27.80;;;;;;;;;;5013348;28;20407;-45
2021/08/31 07:28:09;;;;;;;47.80;25.70;;;;;;;;;;5013214;28;20454;-44
2021/08/31 07:30:35;;;;;;;51.00;27.97;;;;;;;;;;5013355;28;20454;-44
2021/08/31 07:33:03;;;;;;;50.60;28.13;;;;;;;;;;5011754;28;20498;-44
2021/08/31 07:35:29;;;;;;;48.93;27.87;;;;;;;;;;5013180;28;20465;-44
2021/08/31 07:37:55;;;;;;;55.50;28.20;;;;;;;;;;5012871;28;20527;-45
2021/08/31 07:40:21;;;;;;;43.77;25.87;;;;;;;;;;5013145;28;20382;-44
2021/08/31 07:42:48;;;;;;;51.83;27.13;;;;;;;;;;5012785;28;20410;-44
2021/08/31 07:45:14;;;;;;;44.73;25.00;;;;;;;;;;5013045;28;20469;-44
2021/08/31 07:47:40;;;;;;;55.20;28.23;;;;;;;;;;5012937;28;20435;-44
2021/08/31 07:50:07;;;;;;;48.00;27.00;;;;;;;;;;5012891;28;20390;-44
2021/08/31 07:52:34;;;;;;;45.33;25.97;;;;;;;;;;5012568;28;20954;-44
2021/08/31 07:55:00;;;;;;;50.30;25.40;;;;;;;;;;5012966;28;20385;-44
2021/08/31 07:57:27;;;;;;;44.70;26.63;;;;;;;;;;5012632;28;20446;-45
2021/08/31 07:59:53;;;;;;;46.60;24.20;;;;;;;;;;5012826;28;20406;-44
2021/08/31 08:02:19;;;;;;;47.17;23.70;;;;;;;;;;5011498;28;20434;-44
2021/08/31 08:04:45;;;;;;;50.73;24.73;;;;;;;;;;5012673;28;20402;-44
2021/08/31 08:07:11;;;;;;;46.17;26.33;;;;;;;;;;5012571;28;20400;-44
2021/08/31 08:09:37;;;;;;;38.87;23.33;;;;;;;;;;5012072;28;20890;-45
2021/08/31 08:12:03;;;;;;;43.70;23.77;;;;;;;;;;5011712;28;20394;-44
2021/08/31 08:14:29;;;;;;;39.53;22.60;;;;;;;;;;4996198;28;20906;-44
2021/08/31 08:16:55;;;;;;;55.87;25.40;;;;;;;;;;5008577;28;20450;-47
2021/08/31 08:19:21;;;;;;;43.83;22.83;;;;;;;;;;5011763;28;20978;-49
2021/08/31 08:21:47;;;;;;;40.40;22.20;;;;;;;;;;5012109;28;20411;-49
2021/08/31 08:24:13;;;;;;;41.73;22.80;;;;;;;;;;5011933;28;20412;-49
2021/08/31 08:26:39;;;;;;;38.60;23.67;;;;;;;;;;5004475;28;20428;-49
2021/08/31 08:29:05;;;;;;;37.97;20.57;;;;;;;;;;4992821;28;20393;-49
2021/08/31 08:31:33;;;;;;;35.00;21.60;;;;;;;;;;5006720;28;20407;-49
2021/08/31 08:34:00;;;;;;;37.43;21.80;;;;;;;;;;5011739;28;20438;-49
2021/08/31 08:36:26;;;;;;;35.60;20.70;;;;;;;;;;5012239;28;20381;-48
2021/08/31 08:38:52;;;;;;;30.60;19.07;;;;;;;;;;5012127;28;20422;-49
2021/08/31 08:41:18;;;;;;;30.20;18.70;;;;;;;;;;5010877;28;20537;-50
2021/08/31 08:43:44;;;;;;;22.07;16.40;;;;;;;;;;4997436;28;20392;-49
2021/08/31 08:46:10;;;;;;;25.63;15.13;;;;;;;;;;4992905;28;20460;-49
2021/08/31 08:48:36;;;;;;;20.97;14.80;;;;;;;;;;5002097;28;20436;-48
2021/08/31 08:51:03;;;;;;;19.00;14.80;;;;;;;;;;5002771;28;20408;-49
2021/08/31 08:53:30;;;;;;;20.23;14.60;;;;;;;;;;5011256;28;20582;-50
2021/08/31 08:55:58;;;;;;;21.50;14.77;;;;;;;;;;5012105;28;20404;-48
2021/08/31 08:58:24;;;;;;;25.20;16.23;;;;;;;;;;5011866;28;20454;-49
2021/08/31 09:00:55;;;;;;;23.60;15.83;;;;;;;;;;5011678;28;20408;-48
2021/08/31 09:03:22;;;;;;;20.43;14.33;;;;;;;;;;5011228;28;20432;-49
2021/08/31 09:05:48;;;;;;;22.20;15.10;;;;;;;;;;5012003;28;20399;-50
2021/08/31 09:08:14;;;;;;;20.73;15.00;;;;;;;;;;5006407;28;20447;-50
2021/08/31 09:10:44;;;;;;;22.57;15.03;;;;;;;;;;4992311;28;20408;-49
2021/08/31 09:13:11;;;;;;;20.33;14.30;;;;;;;;;;4993568;28;20971;-48
2021/08/31 09:15:39;;;;;;;24.00;15.07;;;;;;;;;;5006373;28;20424;-50
2021/08/31 09:18:10;;;;;;;22.77;14.53;;;;;;;;;;4992156;28;20452;-49
2021/08/31 09:20:46;;;;;;;20.57;16.70;;;;;;;;;;5008159;28;20438;-49
2021/08/31 09:23:17;;;;;;;20.60;14.60;;;;;;;;;;4993160;28;20420;-48
2021/08/31 09:25:44;;;;;;;22.07;15.10;;;;;;;;;;5013302;28;20410;-48
2021/08/31 09:28:21;;;;;;;19.50;14.60;;;;;;;;;;5010564;28;20542;-49
2021/08/31 09:30:55;;;;;;;22.87;15.87;;;;;;;;;;4998363;28;20422;-46
2021/08/31 09:33:21;;;;;;;30.47;15.97;;;;;;;;;;4992131;28;20422;-49
2021/08/31 09:35:59;;;;;;;23.70;14.50;;;;;;;;;;4990683;28;20890;-48
2021/08/31 09:38:25;;;;;;;21.50;14.23;;;;;;;;;;5002586;28;20471;-47
2021/08/31 09:40:53;;;;;;;21.03;17.50;;;;;;;;;;5010044;28;20463;-50
2021/08/31 09:43:25;;;;;;;26.20;15.77;;;;;;;;;;5011239;28;20456;-49
2021/08/31 09:45:52;;;;;;;17.57;14.07;;;;;;;;;;4998769;28;20408;-50
2021/08/31 09:48:19;;;;;;;14.10;11.30;;;;;;;;;;4991897;28;20435;-48
2021/08/31 09:50:49;;;;;;;22.70;13.43;;;;;;;;;;4991857;28;20415;-50
2021/08/31 09:53:19;;;;;;;18.10;12.77;;;;;;;;;;4991799;28;20538;-49
2021/08/31 09:55:50;;;;;;;20.37;12.60;;;;;;;;;;4991961;28;20399;-50
2021/08/31 09:58:25;;;;;;;19.87;12.83;;;;;;;;;;5005414;28;20472;-50
2021/08/31 10:00:53;;;;;;;18.53;12.07;;;;;;;;;;5013838;28;20460;-49
2021/08/31 10:03:19;;;;;;;14.10;11.07;;;;;;;;;;5014710;28;20414;-49
2021/08/31 10:05:46;;;;;;;17.03;11.93;;;;;;;;;;5009947;28;20465;-48
2021/08/31 10:08:13;;;;;;;15.70;10.50;;;;;;;;;;5010261;28;20439;-50
2021/08/31 10:10:39;;;;;;;15.77;10.30;;;;;;;;;;5003302;28;20423;-50
2021/08/31 10:13:08;;;;;;;14.83;10.83;;;;;;;;;;4994766;28;20506;-49
2021/08/31 10:15:39;;;;;;;12.93;10.37;;;;;;;;;;4995155;28;20413;-48
2021/08/31 10:18:06;;;;;;;12.90;10.33;;;;;;;;;;4994970;28;20920;-50
2021/08/31 10:20:32;;;;;;;15.00;10.33;;;;;;;;;;4995041;28;20745;-49
2021/08/31 10:22:59;;;;;;;11.03;9.00;;;;;;;;;;5007449;28;20407;-49
2021/08/31 10:25:26;;;;;;;10.60;9.50;;;;;;;;;;5014545;28;20832;-48
2021/08/31 10:27:53;;;;;;;11.80;9.43;;;;;;;;;;5014346;28;20427;-50
2021/08/31 10:30:19;;;;;;;12.23;8.87;;;;;;;;;;5013530;28;20915;-47
2021/08/31 10:32:46;;;;;;;9.37;8.20;;;;;;;;;;5013936;28;20480;-47
2021/08/31 10:35:43;;;;;;;10.63;8.60;;;;;;;;;;5014366;28;20921;-49
2021/08/31 10:38:10;;;;;;;10.97;8.70;;;;;;;;;;4998577;28;20493;-51
2021/08/31 10:40:36;;;;;;;18.83;7.60;;;;;;;;;;5014186;28;20419;-49
2021/08/31 10:43:04;;;;;;;12.13;9.50;;;;;;;;;;5013831;28;20887;-48
2021/08/31 10:45:34;;;;;;;12.83;9.10;;;;;;;;;;5014184;28;20417;-50
2021/08/31 10:48:00;;;;;;;8.73;7.87;;;;;;;;;;5014051;28;20426;-50
2021/08/31 10:50:28;;;;;;;11.50;9.40;;;;;;;;;;5014098;28;20495;-49
2021/08/31 10:52:56;;;;;;;9.57;8.47;;;;;;;;;;5013746;28;20451;-48
2021/08/31 10:55:25;;;;;;;8.00;7.30;;;;;;;;;;5013898;28;20403;-49
2021/08/31 10:58:01;;;;;;;9.73;8.30;;;;;;;;;;5013701;28;20471;-50
2021/08/31 11:00:28;;;;;;;10.60;7.83;;;;;;;;;;5006685;28;20432;-49
2021/08/31 11:02:57;;;;;;;10.20;7.63;;;;;;;;;;5013543;28;20403;-50
2021/08/31 11:05:24;;;;;;;14.10;7.67;;;;;;;;;;5013785;28;20406;-51
2021/08/31 11:08:02;;;;;;;13.60;7.77;;;;;;;;;;5013081;28;20467;-49
2021/08/31 11:10:35;;;;;;;7.77;7.07;;;;;;;;;;5013131;28;20546;-50
2021/08/31 11:13:17;;;;;;;8.93;7.43;;;;;;;;;;4996375;28;20459;-50
2021/08/31 11:15:44;;;;;;;8.53;6.63;;;;;;;;;;4999548;28;20399;-51
2021/08/31 11:18:11;;;;;;;7.17;6.40;;;;;;;;;;5013476;28;20419;-51
2021/08/31 11:20:38;;;;;;;7.47;6.77;;;;;;;;;;5014075;28;20792;-49
2021/08/31 11:23:04;;;;;;;7.63;6.70;;;;;;;;;;4996659;28;20503;-50
2021/08/31 11:25:33;;;;;;;7.03;6.33;;;;;;;;;;5013036;28;20525;-47
2021/08/31 11:28:00;;;;;;;6.57;5.90;;;;;;;;;;5013286;28;20447;-50
2021/08/31 11:30:27;;;;;;;6.40;5.77;;;;;;;;;;5011729;28;20446;-49
2021/08/31 11:33:11;;;;;;;7.97;5.60;;;;;;;;;;5000468;28;20534;-50
2021/08/31 11:35:37;;;;;;;6.17;5.57;;;;;;;;;;4993648;28;20508;-51
2021/08/31 11:38:03;;;;;;;9.23;5.90;;;;;;;;;;4995274;28;20518;-50
2021/08/31 11:40:29;;;;;;;6.17;5.57;;;;;;;;;;5012964;28;20420;-48
2021/08/31 11:42:56;;;;;;;6.53;5.93;;;;;;;;;;5012705;28;20410;-49
2021/08/31 11:45:32;;;;;;;5.90;5.20;;;;;;;;;;4998134;28;20408;-50
2021/08/31 11:47:58;;;;;;;9.80;6.43;;;;;;;;;;5002073;28;20415;-50
2021/08/31 11:50:25;;;;;;;5.87;5.37;;;;;;;;;;5011292;28;20498;-50
2021/08/31 11:52:51;;;;;;;6.50;5.60;;;;;;;;;;5012506;28;20793;-50
2021/08/31 11:55:27;;;;;;;7.67;5.53;;;;;;;;;;5012906;28;20410;-50
2021/08/31 11:58:03;;;;;;;8.67;6.30;;;;;;;;;;5012694;28;20509;-49
2021/08/31 12:00:39;;;;;;;6.93;6.33;;;;;;;;;;5010456;28;20431;-51
2021/08/31 12:03:17;;;;;;;8.53;5.80;;;;;;;;;;5003497;28;20407;-50
2021/08/31 12:05:43;;;;;;;5.57;4.97;;;;;;;;;;5012790;28;20465;-49
2021/08/31 12:08:09;;;;;;;10.60;5.73;;;;;;;;;;4993837;28;20439;-50
2021/08/31 12:10:35;;;;;;;9.30;6.33;;;;;;;;;;4992990;28;20408;-50
2021/08/31 12:13:01;;;;;;;6.63;6.03;;;;;;;;;;4992798;28;20491;-50
2021/08/31 12:15:27;;;;;;;8.23;5.90;;;;;;;;;;4992977;28;20407;-50
2021/08/31 12:18:04;;;;;;;6.10;5.50;;;;;;;;;;4992894;28;20420;-51
2021/08/31 12:20:30;;;;;;;7.50;6.10;;;;;;;;;;4992917;28;20442;-48
2021/08/31 12:23:01;;;;;;;6.83;6.13;;;;;;;;;;4991802;28;20413;-48
2021/08/31 12:25:27;;;;;;;6.47;5.87;;;;;;;;;;4992778;28;20901;-50
2021/08/31 12:27:54;;;;;;;6.63;6.00;;;;;;;;;;4992754;28;20427;-50
2021/08/31 12:30:33;;;;;;;6.70;6.10;;;;;;;;;;4992816;28;20447;-50
2021/08/31 12:32:59;;;;;;;8.30;7.20;;;;;;;;;;5011230;28;20458;-50
2021/08/31 12:35:36;;;;;;;6.83;6.23;;;;;;;;;;5012372;28;20482;-49
2021/08/31 12:38:10;;;;;;;8.67;6.40;;;;;;;;;;5012303;28;20426;-51
2021/08/31 12:40:38;;;;;;;6.73;6.13;;;;;;;;;;5012181;28;20452;-49
2021/08/31 12:43:09;;;;;;;6.70;5.60;;;;;;;;;;5008499;28;20445;-51
2021/08/31 12:45:36;;;;;;;6.37;5.80;;;;;;;;;;5007463;28;20802;-49
2021/08/31 12:48:02;;;;;;;7.27;5.50;;;;;;;;;;5005662;28;20435;-50
2021/08/31 12:50:29;;;;;;;6.33;5.20;;;;;;;;;;5009578;28;20423;-51
2021/08/31 12:52:57;;;;;;;5.63;5.10;;;;;;;;;;5006589;28;20475;-50
2021/08/31 12:55:29;;;;;;;6.60;5.40;;;;;;;;;;5012026;28;20395;-48
2021/08/31 12:57:56;;;;;;;7.40;5.73;;;;;;;;;;5011895;28;20442;-51
2021/08/31 13:00:24;;;;;;;6.97;5.57;;;;;;;;;;5006329;28;20408;-48
2021/08/31 13:02:52;;;;;;;5.37;4.83;;;;;;;;;;5001899;28;20435;-49
2021/08/31 13:05:18;;;;;;;7.70;5.13;;;;;;;;;;4992352;28;20404;-50
2021/08/31 13:07:44;;;;;;;5.80;5.20;;;;;;;;;;4992266;28;20420;-49
2021/08/31 13:10:11;;;;;;;5.80;4.97;;;;;;;;;;4992259;28;20412;-48
2021/08/31 13:12:37;;;;;;;9.53;5.10;;;;;;;;;;4991861;28;20555;-48
2021/08/31 13:15:03;;;;;;;4.73;4.33;;;;;;;;;;4992253;28;20448;-50
2021/08/31 13:17:29;;;;;;;8.53;4.77;;;;;;;;;;4997263;28;20423;-51
2021/08/31 13:19:55;;;;;;;5.00;4.60;;;;;;;;;;5000228;28;21063;-49
2021/08/31 13:22:21;;;;;;;7.33;4.17;;;;;;;;;;5011497;28;20407;-50
2021/08/31 13:24:47;;;;;;;5.03;4.63;;;;;;;;;;5000658;28;20431;-48
2021/08/31 13:27:14;;;;;;;7.60;4.30;;;;;;;;;;4992101;28;20494;-49
2021/08/31 13:29:40;;;;;;;4.20;3.90;;;;;;;;;;4992179;28;20893;-50
2021/08/31 13:32:07;;;;;;;4.90;3.93;;;;;;;;;;4995520;28;20466;-50
2021/08/31 13:34:33;;;;;;;5.40;4.70;;;;;;;;;;5013003;28;20486;-50
2021/08/31 13:36:59;;;;;;;6.57;4.30;;;;;;;;;;5015104;28;20985;-51
2021/08/31 13:39:25;;;;;;;5.83;3.97;;;;;;;;;;5015201;28;20435;-51
2021/08/31 13:41:51;;;;;;;4.10;3.80;;;;;;;;;;5015096;28;20461;-50
2021/08/31 13:44:17;;;;;;;9.37;4.20;;;;;;;;;;5003037;28;20938;-50
2021/08/31 13:46:43;;;;;;;6.80;4.73;;;;;;;;;;4995577;28;20403;-51
2021/08/31 13:49:11;;;;;;;6.87;4.27;;;;;;;;;;4995707;28;20923;-49
2021/08/31 13:51:37;;;;;;;4.67;4.27;;;;;;;;;;5001388;28;20500;-50
2021/08/31 13:54:03;;;;;;;4.97;4.10;;;;;;;;;;5014365;28;20549;-49
2021/08/31 13:56:30;;;;;;;5.07;4.57;;;;;;;;;;5014684;28;20419;-48
2021/08/31 13:58:56;;;;;;;7.03;4.17;;;;;;;;;;5003087;28;20458;-48
2021/08/31 14:01:22;;;;;;;5.43;4.13;;;;;;;;;;5014721;28;20403;-50
2021/08/31 14:03:48;;;;;;;6.17;4.03;;;;;;;;;;5008417;28;20430;-50
2021/08/31 14:06:14;;;;;;;5.20;4.70;;;;;;;;;;5015012;28;20506;-49
2021/08/31 14:08:41;;;;;;;6.30;3.80;;;;;;;;;;5014824;28;20457;-49
2021/08/31 14:11:07;;;;;;;4.80;3.80;;;;;;;;;;5014577;28;20403;-49
2021/08/31 14:13:33;;;;;;;6.47;3.93;;;;;;;;;;5014633;28;20443;-52
2021/08/31 14:15:59;;;;;;;7.40;4.03;;;;;;;;;;5004125;28;20408;-49
2021/08/31 14:18:25;;;;;;;6.40;4.70;;;;;;;;;;4995055;28;20510;-50
2021/08/31 14:20:52;;;;;;;4.70;4.20;;;;;;;;;;4994862;28;20422;-49
2021/08/31 14:23:18;;;;;;;4.50;4.20;;;;;;;;;;4995032;28;20411;-50